Time;durP1;ratioP1;P1;durP2;ratioP2;P2;SDS_P1;SDS_P2;PMS_P1;PMS_P2;Temp;Humidity;BMP_temperature;BMP_pressure;BME280_temperature;BME280_humidity;BME280_pressure;Samples;Min_cycle;Max_cycle;Signal;HPM_P1;HPM_P2
2022/04/15 00:02:01;;;;;;;29.70;19.13;;;;;;;8.69;100.00;101204.84;4965977;28;20219;-73
2022/04/15 00:04:30;;;;;;;28.17;18.70;;;;;;;8.73;100.00;101208.28;4969169;28;20203;-73
2022/04/15 00:06:57;;;;;;;30.30;20.10;;;;;;;8.75;100.00;101202.19;4964594;28;20218;-73
2022/04/15 00:09:23;;;;;;;33.47;20.20;;;;;;;8.76;100.00;101203.91;4968828;28;20213;-73
2022/04/15 00:11:51;;;;;;;29.00;18.87;;;;;;;8.75;100.00;101207.38;4973534;28;20225;-73
2022/04/15 00:14:18;;;;;;;33.43;20.43;;;;;;;8.74;100.00;101213.44;4963750;28;20201;-73
2022/04/15 00:16:46;;;;;;;32.53;20.73;;;;;;;8.73;100.00;101208.28;4974794;28;20219;-73
2022/04/15 00:19:13;;;;;;;29.97;19.93;;;;;;;8.71;100.00;101198.75;4967806;28;20230;-73
2022/04/15 00:21:40;;;;;;;32.23;20.00;;;;;;;8.67;100.00;101202.25;4963161;28;20600;-73
2022/04/15 00:24:07;;;;;;;32.17;20.50;;;;;;;8.62;100.00;101204.03;4971250;28;20561;-73
2022/04/15 00:26:34;;;;;;;26.03;18.03;;;;;;;8.58;100.00;101204.06;4971696;28;20205;-73
2022/04/15 00:29:00;;;;;;;31.47;19.13;;;;;;;8.51;100.00;101203.25;4963798;28;20639;-73
2022/04/15 00:31:27;;;;;;;29.63;18.10;;;;;;;8.45;100.00;101198.13;4970331;28;20220;-73
2022/04/15 00:33:55;;;;;;;26.17;17.20;;;;;;;8.40;100.00;101199.84;4977135;28;20194;-73
2022/04/15 00:36:22;;;;;;;24.17;17.03;;;;;;;8.35;100.00;101197.28;4968409;28;20710;-73
2022/04/15 00:38:48;;;;;;;22.83;16.40;;;;;;;8.24;100.00;101199.09;4969919;28;20222;-73
2022/04/15 00:41:16;;;;;;;26.20;17.03;;;;;;;8.18;100.00;101197.44;4974265;28;20582;-74
2022/04/15 00:43:43;;;;;;;26.07;17.30;;;;;;;8.13;100.00;101201.78;4976365;28;20259;-75
2022/04/15 00:46:11;;;;;;;21.43;15.73;;;;;;;8.05;100.00;101199.22;4978615;28;20225;-74
2022/04/15 00:48:38;;;;;;;20.63;15.63;;;;;;;8.00;100.00;101198.38;4959149;28;20212;-72
2022/04/15 00:51:06;;;;;;;21.40;17.00;;;;;;;7.96;100.00;101194.94;4976936;28;20217;-73
2022/04/15 00:53:34;;;;;;;23.17;16.47;;;;;;;7.89;100.00;101190.66;4975350;28;20252;-75
2022/04/15 00:56:03;;;;;;;20.07;14.37;;;;;;;7.83;100.00;101197.63;4957304;28;20198;-73
2022/04/15 00:58:32;;;;;;;21.23;16.13;;;;;;;7.76;100.00;101195.06;4959145;28;20222;-73
2022/04/15 01:00:58;;;;;;;28.97;16.70;;;;;;;7.72;100.00;101184.72;4971833;28;20281;-75
2022/04/15 01:03:25;;;;;;;24.37;16.23;;;;;;;7.64;100.00;101187.34;4973261;28;20201;-73
2022/04/15 01:05:56;;;;;;;24.43;16.50;;;;;;;7.59;100.00;101183.91;4975142;28;20198;-74
2022/04/15 01:08:28;;;;;;;21.27;15.07;;;;;;;7.49;100.00;101185.72;4966569;28;20701;-73
2022/04/15 01:10:57;;;;;;;23.13;15.27;;;;;;;7.42;100.00;101191.75;4957605;28;20721;-73
2022/04/15 01:13:26;;;;;;;25.33;16.17;;;;;;;7.35;100.00;101190.94;4963963;28;20567;-73
2022/04/15 01:15:54;;;;;;;23.03;15.57;;;;;;;7.32;100.00;101192.69;4962640;28;20214;-74
2022/04/15 01:18:21;;;;;;;22.50;15.67;;;;;;;7.27;100.00;101187.50;4960103;28;20225;-72
2022/04/15 01:20:48;;;;;;;25.97;15.80;;;;;;;7.20;100.00;101193.59;4970846;28;20230;-73
2022/04/15 01:23:17;;;;;;;23.73;16.23;;;;;;;7.14;100.00;101197.06;4965032;28;20205;-73
2022/04/15 01:25:43;;;;;;;23.37;15.60;;;;;;;7.10;100.00;101202.25;4973669;28;20240;-73
2022/04/15 01:28:10;;;;;;;23.93;16.67;;;;;;;7.05;100.00;101196.22;4968605;28;20215;-73
2022/04/15 01:30:37;;;;;;;25.37;16.20;;;;;;;6.99;100.00;101205.72;4966733;28;20226;-74
2022/04/15 01:33:03;;;;;;;24.03;15.63;;;;;;;6.95;100.00;101200.56;4965330;28;20206;-74
2022/04/15 01:35:31;;;;;;;24.47;15.43;;;;;;;6.92;100.00;101196.25;4969194;28;20224;-72
2022/04/15 01:37:59;;;;;;;27.43;16.87;;;;;;;6.89;100.00;101196.25;4961504;28;20237;-73
2022/04/15 01:40:27;;;;;;;27.10;17.30;;;;;;;6.88;100.00;101196.25;4966760;28;20225;-73
2022/04/15 01:42:53;;;;;;;27.40;16.73;;;;;;;6.88;100.00;101191.94;4954549;28;20221;-73
2022/04/15 01:45:20;;;;;;;28.60;17.77;;;;;;;6.89;100.00;101187.63;4960077;28;20205;-75
2022/04/15 01:47:46;;;;;;;31.93;17.50;;;;;;;6.86;100.00;101185.91;4969909;28;20213;-73
2022/04/15 01:50:13;;;;;;;28.73;16.93;;;;;;;6.82;100.00;101187.63;4968909;28;20221;-73
2022/04/15 01:52:39;;;;;;;31.27;17.63;;;;;;;6.79;100.00;101190.22;4967798;28;20895;-75
2022/04/15 01:55:06;;;;;;;28.00;17.70;;;;;;;6.78;100.00;101192.81;4965246;28;20198;-73
2022/04/15 01:57:34;;;;;;;31.47;17.57;;;;;;;6.75;100.00;101190.22;4971602;28;20277;-72
2022/04/15 02:00:00;;;;;;;29.57;17.80;;;;;;;6.75;100.00;101193.66;4959959;28;20222;-73
2022/04/15 02:02:27;;;;;;;34.63;19.73;;;;;;;6.75;100.00;101198.84;4969896;28;20249;-72
2022/04/15 02:04:53;;;;;;;33.50;18.60;;;;;;;6.76;100.00;101199.75;4964391;28;20202;-74
2022/04/15 02:07:20;;;;;;;37.93;20.97;;;;;;;6.81;100.00;101209.22;4965366;28;20213;-74
2022/04/15 02:09:46;;;;;;;37.33;21.03;;;;;;;6.88;100.00;101204.91;4960282;28;20194;-76
2022/04/15 02:12:13;;;;;;;38.00;22.10;;;;;;;6.95;100.00;101193.66;4969153;28;20222;-74
2022/04/15 02:14:41;;;;;;;39.67;22.00;;;;;;;7.02;100.00;101207.47;4963866;28;20217;-72
2022/04/15 02:17:07;;;;;;;41.53;22.73;;;;;;;7.10;100.00;101202.25;4975158;28;20190;-73
2022/04/15 02:19:33;;;;;;;44.13;23.90;;;;;;;7.20;100.00;101201.38;4966912;28;20260;-74
2022/04/15 02:22:00;;;;;;;46.60;23.87;;;;;;;7.25;100.00;101203.97;4972007;28;20214;-73
2022/04/15 02:24:26;;;;;;;45.53;24.10;;;;;;;7.35;100.00;101203.03;4965906;28;20568;-73
2022/04/15 02:26:53;;;;;;;53.70;26.07;;;;;;;7.39;100.00;101204.78;4973475;28;20205;-73
2022/04/15 02:29:19;;;;;;;44.13;23.50;;;;;;;7.38;100.00;101203.88;4962556;28;20208;-73
2022/04/15 02:31:47;;;;;;;46.13;23.97;;;;;;;7.43;100.00;101203.03;4950293;28;20218;-74
2022/04/15 02:34:13;;;;;;;47.83;25.00;;;;;;;7.46;100.00;101206.47;4966626;28;20201;-73
2022/04/15 02:36:40;;;;;;;48.00;23.87;;;;;;;7.52;100.00;101200.38;4961584;28;20608;-73
2022/04/15 02:39:10;;;;;;;50.27;27.00;;;;;;;7.58;100.00;101193.44;4962624;28;20313;-75
2022/04/15 02:41:37;;;;;;;50.50;25.03;;;;;;;7.59;100.00;101191.69;4969297;28;20218;-74
2022/04/15 02:44:04;;;;;;;46.57;24.40;;;;;;;7.61;100.00;101189.97;4969088;28;20209;-74
2022/04/15 02:46:30;;;;;;;47.70;25.47;;;;;;;7.61;100.00;101191.69;4970010;28;20624;-74
2022/04/15 02:48:58;;;;;;;51.57;24.37;;;;;;;7.62;100.00;101188.25;4957366;28;20222;-75
2022/04/15 02:51:24;;;;;;;49.23;25.53;;;;;;;7.67;100.00;101186.47;4971201;28;20222;-73
2022/04/15 02:53:51;;;;;;;46.90;24.23;;;;;;;7.69;100.00;101179.56;4971638;28;20210;-76
2022/04/15 02:56:17;;;;;;;46.43;24.17;;;;;;;7.69;100.00;101175.22;4960398;28;20276;-73
2022/04/15 02:58:44;;;;;;;49.47;25.87;;;;;;;7.69;100.00;101177.81;4964410;28;20209;-74
2022/04/15 03:01:10;;;;;;;43.10;23.70;;;;;;;7.72;100.00;101172.63;4962525;28;20222;-75
2022/04/15 03:03:36;;;;;;;46.87;24.97;;;;;;;7.75;100.00;101174.31;4975718;28;20207;-73
2022/04/15 03:06:04;;;;;;;43.40;24.13;;;;;;;7.76;100.00;101183.84;4964324;28;20213;-73
2022/04/15 03:08:31;;;;;;;43.47;22.97;;;;;;;7.77;100.00;101182.94;4974313;28;20693;-77
2022/04/15 03:10:58;;;;;;;46.00;24.57;;;;;;;7.80;100.00;101188.13;4952597;28;20226;-73
2022/04/15 03:13:24;;;;;;;48.97;24.43;;;;;;;7.86;100.00;101187.22;4964705;28;20210;-76
2022/04/15 03:15:51;;;;;;;47.90;26.57;;;;;;;7.87;100.00;101191.56;4978993;28;20213;-74
2022/04/15 03:18:17;;;;;;;45.90;25.63;;;;;;;7.90;100.00;101196.75;4970444;28;20563;-73
2022/04/15 03:20:44;;;;;;;43.80;24.33;;;;;;;7.92;100.00;101201.03;4961803;28;20234;-73
2022/04/15 03:23:11;;;;;;;52.87;26.07;;;;;;;7.93;100.00;101188.91;4968918;28;20721;-74
2022/04/15 03:25:38;;;;;;;48.63;24.30;;;;;;;7.97;100.00;101196.69;4958584;28;20195;-73
2022/04/15 03:28:04;;;;;;;44.07;24.67;;;;;;;8.02;100.00;101193.19;4969914;28;20202;-73
2022/04/15 03:30:31;;;;;;;50.43;25.70;;;;;;;8.04;100.00;101196.63;4966564;28;20222;-76
2022/04/15 03:32:57;;;;;;;51.20;25.83;;;;;;;8.07;100.00;101200.09;4960339;28;20201;-73
2022/04/15 03:35:23;;;;;;;39.57;23.13;;;;;;;8.07;100.00;101192.31;4967750;28;20203;-73
2022/04/15 03:37:51;;;;;;;52.47;26.00;;;;;;;8.07;100.00;101194.91;4957680;28;20213;-74
2022/04/15 03:40:22;;;;;;;45.33;25.40;;;;;;;8.10;100.00;101197.47;4961676;28;20245;-73
2022/04/15 03:42:49;;;;;;;46.60;25.33;;;;;;;8.09;100.00;101185.38;4963577;28;20205;-73
2022/04/15 03:45:19;;;;;;;42.67;24.30;;;;;;;8.09;100.00;101195.75;4961560;28;20202;-77
2022/04/15 03:47:45;;;;;;;42.57;24.67;;;;;;;8.10;100.00;101202.66;4975656;28;20640;-73
2022/04/15 03:50:13;;;;;;;46.63;25.60;;;;;;;8.11;100.00;101203.53;4960513;28;20192;-74
2022/04/15 03:52:42;;;;;;;43.17;23.53;;;;;;;8.14;100.00;101193.09;4971253;28;20225;-73
2022/04/15 03:55:10;;;;;;;43.97;24.07;;;;;;;8.16;100.00;101196.56;4959584;28;20199;-74
2022/04/15 03:57:38;;;;;;;44.90;24.77;;;;;;;8.15;100.00;101194.84;4964570;28;20540;-74
2022/04/15 04:00:07;;;;;;;44.40;24.90;;;;;;;8.18;100.00;101209.53;4965038;28;20486;-73
2022/04/15 04:02:34;;;;;;;44.43;25.23;;;;;;;8.20;100.00;101194.81;4980552;23;20346;-69
2022/04/15 04:05:00;;;;;;;44.23;24.53;;;;;;;8.22;100.00;101201.72;4973282;28;20199;-69
2022/04/15 04:07:26;;;;;;;45.63;25.13;;;;;;;8.22;100.00;101204.31;4971046;28;20209;-69
2022/04/15 04:09:53;;;;;;;42.57;23.90;;;;;;;8.24;100.00;101205.16;4973110;28;20196;-69
2022/04/15 04:12:19;;;;;;;48.40;25.33;;;;;;;8.30;100.00;101207.72;4977707;28;20229;-69
2022/04/15 04:14:47;;;;;;;45.43;25.07;;;;;;;8.36;100.00;101212.00;4975077;28;20691;-69
2022/04/15 04:17:13;;;;;;;48.83;25.80;;;;;;;8.37;100.00;101215.47;4973276;28;20203;-70
2022/04/15 04:19:40;;;;;;;43.50;24.67;;;;;;;8.40;100.00;101207.66;4973763;28;20209;-69
2022/04/15 04:22:06;;;;;;;42.63;23.83;;;;;;;8.42;100.00;101211.09;4977055;28;20219;-69
2022/04/15 04:24:32;;;;;;;45.50;24.83;;;;;;;8.46;100.00;101215.41;4968649;28;20214;-69
2022/04/15 04:26:59;;;;;;;44.87;27.40;;;;;;;8.50;100.00;101219.72;4970296;28;20206;-69
2022/04/15 04:29:25;;;;;;;45.27;26.43;;;;;;;8.51;100.00;101216.25;4970041;28;20839;-69
2022/04/15 04:31:53;;;;;;;43.90;26.27;;;;;;;8.53;100.00;101214.50;4980502;28;20224;-69
2022/04/15 04:34:19;;;;;;;45.87;25.77;;;;;;;8.56;100.00;101224.88;4980908;28;20210;-69
2022/04/15 04:36:46;;;;;;;44.97;27.23;;;;;;;8.57;100.00;101226.59;4980444;28;20199;-69
2022/04/15 04:39:12;;;;;;;45.90;27.40;;;;;;;8.58;100.00;101223.13;4973757;28;20205;-69
2022/04/15 04:41:40;;;;;;;49.77;28.13;;;;;;;8.58;100.00;101225.72;4977011;28;20250;-69
2022/04/15 04:44:06;;;;;;;45.50;28.33;;;;;;;8.59;100.00;101234.41;4970433;28;20210;-69
2022/04/15 04:46:33;;;;;;;49.63;29.47;;;;;;;8.59;100.00;101237.00;4976363;28;20205;-69
2022/04/15 04:49:01;;;;;;;50.97;29.03;;;;;;;8.59;100.00;101234.41;4975241;28;20211;-69
2022/04/15 04:51:28;;;;;;;47.90;27.70;;;;;;;8.59;100.00;101245.66;4967156;28;20216;-69
2022/04/15 04:53:54;;;;;;;43.77;27.17;;;;;;;8.57;100.00;101249.16;4976325;28;20401;-69
2022/04/15 04:56:21;;;;;;;44.07;25.03;;;;;;;8.44;100.00;101264.84;4967666;28;20198;-69
2022/04/15 04:58:47;;;;;;;40.27;25.20;;;;;;;8.34;100.00;101261.38;4972410;28;20228;-69
2022/04/15 05:01:14;;;;;;;44.78;24.23;;;;;;;8.28;100.00;101264.00;4940583;28;1006956;-69
2022/04/15 05:03:40;;;;;;;34.93;22.83;;;;;;;8.18;100.00;101258.88;4976789;28;20226;-69
2022/04/15 05:06:08;;;;;;;35.67;21.73;;;;;;;8.17;100.00;101264.97;4972874;28;20215;-69
2022/04/15 05:08:34;;;;;;;35.43;20.93;;;;;;;8.11;100.00;101278.88;4972339;28;20211;-70
2022/04/15 05:11:01;;;;;;;32.47;19.77;;;;;;;8.02;100.00;101287.56;4972702;28;20686;-69
2022/04/15 05:13:27;;;;;;;27.80;18.30;;;;;;;7.95;100.00;101297.13;4974016;28;20196;-69
2022/04/15 05:15:54;;;;;;;24.90;17.17;;;;;;;7.88;100.00;101299.72;4971411;28;20207;-69
2022/04/15 05:18:20;;;;;;;25.63;16.47;;;;;;;7.82;100.00;101310.16;4973798;28;20207;-69
2022/04/15 05:20:46;;;;;;;20.63;14.43;;;;;;;7.76;100.00;101308.44;4976761;28;20222;-69
2022/04/15 05:23:14;;;;;;;20.63;14.43;;;;;;;7.69;100.00;101314.53;4980609;28;20223;-69
2022/04/15 05:25:40;;;;;;;20.03;14.10;;;;;;;7.61;100.00;101322.31;4974449;28;20213;-69
2022/04/15 05:28:07;;;;;;;15.20;11.70;;;;;;;7.59;100.00;101324.91;4979188;28;20220;-69
2022/04/15 05:30:33;;;;;;;17.90;11.40;;;;;;;7.56;100.00;101322.34;4982063;28;20199;-69
2022/04/15 05:32:59;;;;;;;17.97;11.90;;;;;;;7.53;100.00;101329.28;4977874;28;20222;-69
2022/04/15 05:35:26;;;;;;;15.80;11.50;;;;;;;7.56;100.00;101329.25;4980948;28;20198;-69
2022/04/15 05:37:53;;;;;;;14.17;11.10;;;;;;;7.54;100.00;101329.25;4976090;28;20206;-69
2022/04/15 05:40:22;;;;;;;13.83;11.00;;;;;;;7.55;100.00;101332.72;4970541;28;20694;-70
2022/04/15 05:42:48;;;;;;;13.03;10.87;;;;;;;7.54;100.00;101333.59;4969199;28;20225;-69
2022/04/15 05:45:14;;;;;;;13.97;9.80;;;;;;;7.51;100.00;101338.78;4981561;28;20206;-69
2022/04/15 05:47:41;;;;;;;12.67;9.03;;;;;;;7.48;100.00;101339.66;4970416;28;20210;-69
2022/04/15 05:50:08;;;;;;;10.07;8.17;;;;;;;7.44;100.00;101342.25;4980738;28;20200;-69
2022/04/15 05:52:36;;;;;;;10.13;7.80;;;;;;;7.42;100.00;101346.59;4975155;28;20637;-69
2022/04/15 05:55:03;;;;;;;10.43;7.90;;;;;;;7.39;100.00;101350.91;4965994;28;20202;-69
2022/04/15 05:57:31;;;;;;;12.53;8.00;;;;;;;7.41;100.00;101345.72;4972285;28;20206;-69
2022/04/15 05:59:57;;;;;;;10.53;8.03;;;;;;;7.41;100.00;101355.25;4968549;28;20492;-69
2022/04/15 06:02:24;;;;;;;8.87;7.23;;;;;;;7.46;100.00;101351.78;4977022;28;20229;-69
2022/04/15 06:04:50;;;;;;;10.67;8.03;;;;;;;7.46;100.00;101356.06;4973489;28;21743;-69
2022/04/15 06:07:17;;;;;;;9.20;7.23;;;;;;;7.47;100.00;101352.63;4983816;28;20593;-69
2022/04/15 06:09:43;;;;;;;8.27;7.10;;;;;;;7.49;100.00;101361.28;4974261;28;20209;-69
2022/04/15 06:12:11;;;;;;;13.10;7.47;;;;;;;7.56;100.00;101368.19;4975829;28;20256;-70
2022/04/15 06:14:38;;;;;;;9.57;6.97;;;;;;;7.52;100.00;101363.88;4974192;28;20574;-69
2022/04/15 06:17:05;;;;;;;9.40;7.50;;;;;;;7.57;100.00;101365.59;4979810;28;20202;-69
2022/04/15 06:19:31;;;;;;;11.23;8.67;;;;;;;7.62;100.00;101368.19;4973777;28;20699;-69
2022/04/15 06:21:58;;;;;;;8.57;7.20;;;;;;;7.69;100.00;101374.22;4970786;28;20302;-69
2022/04/15 06:24:24;;;;;;;7.63;6.40;;;;;;;7.71;100.00;101362.97;4965687;28;20206;-69
2022/04/15 06:26:51;;;;;;;10.67;7.57;;;;;;;7.81;100.00;101368.13;4975565;28;20396;-69
2022/04/15 06:29:18;;;;;;;9.67;7.30;;;;;;;7.90;100.00;101361.19;4970183;28;20202;-69
2022/04/15 06:31:47;;;;;;;11.03;7.57;;;;;;;7.99;100.00;101362.03;4972804;28;20222;-69
2022/04/15 06:34:13;;;;;;;8.87;6.37;;;;;;;7.99;100.00;101362.88;4970995;28;20243;-69
2022/04/15 06:36:39;;;;;;;7.20;6.50;;;;;;;8.07;100.00;101368.03;4971335;28;20610;-69
2022/04/15 06:39:06;;;;;;;8.47;6.53;;;;;;;8.09;100.00;101372.38;4975543;28;20289;-69
2022/04/15 06:41:34;;;;;;;7.27;6.03;;;;;;;8.09;100.00;101384.47;4977619;28;20234;-69
2022/04/15 06:44:00;;;;;;;8.03;5.90;;;;;;;8.12;100.00;101382.72;4971845;28;20235;-69
2022/04/15 06:46:26;;;;;;;6.73;5.73;;;;;;;8.15;100.00;101385.31;4972420;28;20200;-69
2022/04/15 06:48:54;;;;;;;8.00;5.73;;;;;;;8.36;100.00;101387.84;4972908;28;20202;-69
2022/04/15 06:51:20;;;;;;;7.30;5.47;;;;;;;8.39;100.00;101383.50;4971403;28;20227;-69
2022/04/15 06:53:47;;;;;;;6.43;5.37;;;;;;;8.46;100.00;101377.44;4970233;28;20199;-69
2022/04/15 06:56:14;;;;;;;6.20;4.90;;;;;;;8.51;100.00;101379.97;4973945;28;20208;-69
2022/04/15 06:58:41;;;;;;;6.77;5.87;;;;;;;8.57;100.00;101373.91;4967053;28;20215;-69
2022/04/15 07:01:07;;;;;;;8.37;5.83;;;;;;;8.62;100.00;101374.72;4972776;28;20223;-69
2022/04/15 07:03:34;;;;;;;8.03;5.60;;;;;;;8.69;100.00;101376.44;4966459;28;20208;-69
2022/04/15 07:06:02;;;;;;;8.27;5.87;;;;;;;8.73;100.00;101375.53;4975011;28;20578;-69
2022/04/15 07:08:28;;;;;;;5.93;5.30;;;;;;;8.81;100.00;101380.66;4973048;28;20225;-69
2022/04/15 07:10:54;;;;;;;5.80;4.97;;;;;;;9.07;100.00;101380.47;4975247;28;20203;-69
2022/04/15 07:13:21;;;;;;;7.03;5.67;;;;;;;9.13;100.00;101385.66;4974485;28;20205;-69
2022/04/15 07:15:47;;;;;;;5.90;4.93;;;;;;;9.12;100.00;101394.31;4976437;28;20210;-69
2022/04/15 07:18:14;;;;;;;5.97;4.37;;;;;;;9.14;100.00;101397.75;4970921;28;20205;-69
2022/04/15 07:20:40;;;;;;;6.30;5.00;;;;;;;9.16;100.00;101402.97;4974144;28;20640;-69
2022/04/15 07:23:08;;;;;;;7.67;5.53;;;;;;;9.04;100.00;101403.91;4969042;28;20222;-69
2022/04/15 07:25:34;;;;;;;6.50;5.20;;;;;;;9.09;100.00;101399.53;4971143;28;20612;-69
2022/04/15 07:28:02;;;;;;;9.37;5.23;;;;;;;9.04;100.00;101404.78;4974379;28;20214;-69
2022/04/15 07:30:29;;;;;;;6.37;5.73;;;;;;;9.12;100.00;101409.06;4970456;28;20727;-69
2022/04/15 07:32:55;;;;;;;7.30;5.70;;;;;;;9.16;100.00;101401.22;4968796;28;20236;-70
2022/04/15 07:35:22;;;;;;;5.93;5.33;;;;;;;9.28;100.00;101408.06;4966219;28;20210;-70
2022/04/15 07:37:48;;;;;;;6.73;5.50;;;;;;;9.33;100.00;101410.66;4975409;28;20219;-69
2022/04/15 07:40:16;;;;;;;9.23;5.80;;;;;;;9.33;100.00;101410.66;4976912;28;20213;-69
2022/04/15 07:42:43;;;;;;;7.53;5.10;;;;;;;9.27;100.00;101408.97;4974780;28;20709;-69
2022/04/15 07:45:09;;;;;;;9.27;5.63;;;;;;;9.21;100.00;101406.41;4978230;28;20198;-69
2022/04/15 07:47:36;;;;;;;7.87;5.03;;;;;;;9.21;99.06;101407.25;4978482;28;20751;-69
2022/04/15 07:50:03;;;;;;;5.30;4.47;;;;;;;9.22;100.00;101419.41;4972657;28;20257;-69
2022/04/15 07:52:32;;;;;;;5.87;4.83;;;;;;;9.34;100.00;101413.25;4978767;28;20672;-69
2022/04/15 07:54:58;;;;;;;7.30;4.80;;;;;;;9.33;100.00;101415.84;4970789;28;20547;-70
2022/04/15 07:57:27;;;;;;;8.50;5.00;;;;;;;9.18;100.00;101409.91;4974612;28;20197;-69
2022/04/15 07:59:54;;;;;;;7.33;5.57;;;;;;;9.28;100.00;101416.72;4967981;28;20232;-69
2022/04/15 08:02:20;;;;;;;8.27;5.97;;;;;;;9.35;100.00;101414.09;4960893;28;20230;-69
2022/04/15 08:04:47;;;;;;;5.97;5.40;;;;;;;9.33;100.00;101419.31;4969231;28;20209;-69
2022/04/15 08:07:13;;;;;;;8.50;6.23;;;;;;;9.36;100.00;101421.03;4968258;28;20209;-69
2022/04/15 08:09:39;;;;;;;6.70;5.53;;;;;;;9.27;100.00;101416.78;4978276;28;20243;-69
2022/04/15 08:12:08;;;;;;;6.77;5.60;;;;;;;9.18;99.80;101430.72;4974337;28;20220;-69
2022/04/15 08:14:36;;;;;;;7.50;6.13;;;;;;;9.21;100.00;101430.66;4972018;28;20210;-69
2022/04/15 08:17:03;;;;;;;6.77;5.70;;;;;;;9.27;100.00;101428.03;4975009;28;20205;-69
2022/04/15 08:19:31;;;;;;;7.87;5.77;;;;;;;9.38;100.00;101425.34;4968815;28;20227;-69
2022/04/15 08:21:58;;;;;;;9.00;5.53;;;;;;;9.33;100.00;101441.88;4970613;28;20240;-69
2022/04/15 08:24:24;;;;;;;6.50;5.57;;;;;;;9.12;100.00;101441.16;4966486;28;20209;-69
2022/04/15 08:26:56;;;;;;;6.43;5.43;;;;;;;9.09;100.00;101441.16;4971069;28;20230;-69
2022/04/15 08:29:22;;;;;;;10.70;6.57;;;;;;;9.08;100.00;101444.66;4973986;28;20301;-69
2022/04/15 08:31:50;;;;;;;9.17;6.03;;;;;;;8.98;100.00;101445.59;4963240;28;20224;-69
2022/04/15 08:34:16;;;;;;;7.57;6.00;;;;;;;9.01;100.00;101448.19;4966518;28;20210;-69
2022/04/15 08:36:43;;;;;;;9.20;6.50;;;;;;;8.98;100.00;101453.38;4973469;28;20698;-69
2022/04/15 08:39:09;;;;;;;5.97;5.20;;;;;;;9.02;100.00;101449.88;4963931;28;20206;-69
2022/04/15 08:41:41;;;;;;;7.27;5.57;;;;;;;8.97;100.00;101457.72;4971382;28;20236;-69
2022/04/15 08:44:09;;;;;;;8.00;5.50;;;;;;;8.99;100.00;101453.38;4967284;28;20198;-69
2022/04/15 08:46:36;;;;;;;8.20;6.33;;;;;;;9.00;100.00;101462.03;4969128;28;20209;-69
2022/04/15 08:49:05;;;;;;;8.13;5.83;;;;;;;8.90;100.00;101464.72;4971258;28;20671;-69
2022/04/15 08:51:34;;;;;;;7.97;5.57;;;;;;;8.81;100.00;101469.09;4967279;28;20226;-69
2022/04/15 08:54:01;;;;;;;7.60;5.50;;;;;;;8.71;100.00;101473.47;4969430;28;20209;-69
2022/04/15 08:56:27;;;;;;;8.03;5.80;;;;;;;8.71;100.00;101476.09;4974051;28;20610;-69
2022/04/15 08:58:53;;;;;;;7.40;5.47;;;;;;;8.76;100.00;101482.13;4964603;28;20210;-69
2022/04/15 09:01:20;;;;;;;8.63;5.77;;;;;;;8.84;100.00;101482.06;4965409;28;20293;-69
2022/04/15 09:03:46;;;;;;;5.93;5.10;;;;;;;8.88;100.00;101489.88;4974291;28;20203;-69
2022/04/15 09:06:17;;;;;;;7.60;5.50;;;;;;;9.04;100.00;101484.56;4970157;28;20688;-69
2022/04/15 09:09:00;;;;;;;7.27;5.40;;;;;;;8.99;100.00;101486.31;4965929;28;20253;-69
2022/04/15 09:11:31;;;;;;;6.50;5.10;;;;;;;8.96;100.00;101486.34;4971584;28;20214;-69
2022/04/15 09:13:57;;;;;;;6.67;5.30;;;;;;;8.99;100.00;101497.59;4966699;28;20277;-69
2022/04/15 09:16:25;;;;;;;7.77;5.80;;;;;;;9.05;100.00;101497.56;4972233;28;20260;-69
2022/04/15 09:18:51;;;;;;;7.13;5.67;;;;;;;9.04;100.00;101494.94;4967792;28;20206;-69
2022/04/15 09:21:21;;;;;;;6.27;4.40;;;;;;;9.14;100.00;101490.56;4975803;28;20240;-69
2022/04/15 09:23:49;;;;;;;6.37;4.93;;;;;;;9.07;100.00;101495.81;4972096;28;20251;-69
2022/04/15 09:26:15;;;;;;;6.57;4.87;;;;;;;8.96;100.00;101499.34;4973450;28;20206;-69
2022/04/15 09:28:42;;;;;;;5.80;4.60;;;;;;;8.94;99.51;101496.75;4971479;28;20994;-69
2022/04/15 09:31:13;;;;;;;13.57;8.57;;;;;;;9.03;100.00;101501.06;4971927;28;20206;-69
2022/04/15 09:33:51;;;;;;;6.83;5.03;;;;;;;9.01;100.00;101498.44;4968470;28;20250;-69
2022/04/15 09:36:24;;;;;;;5.40;4.50;;;;;;;9.12;100.00;101503.59;4963308;28;20469;-69
2022/04/15 09:38:50;;;;;;;4.60;3.93;;;;;;;9.19;100.00;101500.06;4964474;28;20206;-69
2022/04/15 09:41:20;;;;;;;6.70;4.27;;;;;;;9.28;100.00;101500.00;4965790;28;20221;-70
2022/04/15 09:43:51;;;;;;;5.87;4.47;;;;;;;9.22;98.86;101507.00;4970587;28;20547;-70
2022/04/15 09:46:17;;;;;;;5.30;4.60;;;;;;;9.23;98.44;101501.81;4970460;28;20547;-69
2022/04/15 09:49:01;;;;;;;6.33;5.40;;;;;;;9.33;100.00;101501.72;4973599;28;20686;-69
2022/04/15 09:51:31;;;;;;;6.57;5.00;;;;;;;9.35;100.00;101506.03;4959594;28;20221;-69
2022/04/15 09:54:01;;;;;;;8.17;4.90;;;;;;;9.31;100.00;101511.28;4967999;28;20628;-69
2022/04/15 09:56:31;;;;;;;6.63;5.27;;;;;;;9.25;100.00;101512.16;4960281;28;20556;-69
2022/04/15 09:59:04;;;;;;;6.67;4.93;;;;;;;9.40;100.00;101508.63;4962906;28;20202;-69
2022/04/15 10:04:00;;;;;;;6.27;4.60;;;;;;;9.60;99.93;101513.66;4939312;28;20214;-75
2022/04/15 10:06:29;;;;;;;5.20;4.50;;;;;;;9.66;97.41;101516.22;4941765;28;20219;-75
2022/04/15 10:08:57;;;;;;;6.60;4.60;;;;;;;9.79;97.81;101515.22;4939964;28;20669;-75
2022/04/15 10:11:24;;;;;;;7.07;4.80;;;;;;;9.81;96.57;101521.28;4939506;28;20205;-74
2022/04/15 10:13:52;;;;;;;5.23;4.50;;;;;;;9.85;95.73;101523.00;4933152;29;20207;-75
2022/04/15 10:16:18;;;;;;;5.40;4.47;;;;;;;9.89;94.61;101526.44;4936319;29;20211;-74
2022/04/15 10:18:46;;;;;;;4.77;4.20;;;;;;;9.78;92.52;101531.75;4931828;29;20200;-76
2022/04/15 10:21:13;;;;;;;5.57;3.90;;;;;;;9.74;93.81;101526.56;4929719;29;20223;-74
2022/04/15 10:23:41;;;;;;;5.57;4.17;;;;;;;9.57;92.65;101522.38;4922409;29;20224;-74
2022/04/15 10:26:09;;;;;;;6.90;4.17;;;;;;;9.48;93.10;101519.84;4923015;29;20203;-73
2022/04/15 10:28:42;;;;;;;5.97;4.60;;;;;;;9.68;94.26;101516.22;4926892;29;20700;-73
2022/04/15 10:31:11;;;;;;;5.13;3.87;;;;;;;9.79;92.77;101532.59;4931239;29;20269;-75
2022/04/15 10:33:39;;;;;;;4.73;3.50;;;;;;;9.77;93.09;101526.56;4931813;29;20686;-74
2022/04/15 10:36:16;;;;;;;4.60;4.10;;;;;;;9.65;92.43;101524.91;4925545;29;20222;-76
2022/04/15 10:39:14;;;;;;;4.63;3.97;;;;;;;9.67;95.06;101523.16;4928054;29;20239;-73
2022/04/15 10:41:57;;;;;;;4.50;3.80;;;;;;;9.77;95.87;101519.59;4927799;29;20215;-73
2022/04/15 10:44:29;;;;;;;5.03;4.37;;;;;;;9.84;95.16;101529.09;4923046;29;20203;-74
2022/04/15 10:47:00;;;;;;;4.70;4.17;;;;;;;9.90;94.40;101528.16;4933131;29;20207;-73
2022/04/15 10:49:30;;;;;;;8.00;4.10;;;;;;;9.85;93.22;101523.00;4927462;29;20623;-74
2022/04/15 10:52:00;;;;;;;4.70;4.20;;;;;;;9.82;94.81;101522.19;4924679;29;20270;-75
2022/04/15 10:54:34;;;;;;;5.50;4.50;;;;;;;9.89;95.12;101516.03;4940045;29;20576;-73
2022/04/15 10:57:02;;;;;;;4.70;3.90;;;;;;;9.95;95.65;101520.31;4921151;29;20193;-77
2022/04/15 11:02:17;;;;;;;6.20;4.40;;;;;;;9.88;94.14;101524.72;4921950;29;20228;-73
2022/04/15 11:04:49;;;;;;;5.80;4.47;;;;;;;9.76;94.08;101530.91;4925836;29;20204;-73
2022/04/15 11:07:17;;;;;;;6.20;4.90;;;;;;;9.75;95.61;101525.72;4923197;29;20675;-76
2022/04/15 11:09:45;;;;;;;6.30;4.70;;;;;;;9.72;94.90;101520.53;4929701;29;20734;-74
2022/04/15 11:12:11;;;;;;;5.13;4.60;;;;;;;9.71;96.43;101527.47;4930540;29;20226;-74
2022/04/15 11:14:44;;;;;;;6.53;4.90;;;;;;;9.75;97.17;101528.31;4934724;29;20250;-74
2022/04/15 11:17:13;;;;;;;5.70;4.60;;;;;;;9.85;97.73;101525.63;4929266;29;20303;-73
2022/04/15 11:19:41;;;;;;;6.33;4.40;;;;;;;9.84;96.96;101534.28;4928971;29;20260;-74
2022/04/15 11:22:08;;;;;;;5.53;4.50;;;;;;;9.87;97.52;101528.22;4936870;29;20759;-76
2022/04/15 11:24:38;;;;;;;5.83;4.50;;;;;;;9.90;98.08;101530.75;4935415;29;20209;-74